sensor_id;sensor_type;location;lat;lon;timestamp;P1;durP1;ratioP1;P2;durP2;ratioP2
6661;SDS011;3367;48.714;8.994;2023-03-05T00:02:07;34.40;;;16.70;;
6661;SDS011;3367;48.714;8.994;2023-03-05T00:04:33;34.17;;;17.20;;
6661;SDS011;3367;48.714;8.994;2023-03-05T00:07:00;38.20;;;18.03;;
6661;SDS011;3367;48.714;8.994;2023-03-05T00:09:27;39.40;;;16.73;;
6661;SDS011;3367;48.714;8.994;2023-03-05T00:11:54;35.30;;;16.77;;
6661;SDS011;3367;48.714;8.994;2023-03-05T00:14:21;34.83;;;17.13;;
6661;SDS011;3367;48.714;8.994;2023-03-05T00:16:49;38.47;;;17.50;;
6661;SDS011;3367;48.714;8.994;2023-03-05T00:19:15;34.90;;;17.10;;
6661;SDS011;3367;48.714;8.994;2023-03-05T00:21:42;40.43;;;16.37;;
6661;SDS011;3367;48.714;8.994;2023-03-05T00:24:10;39.77;;;17.60;;
6661;SDS011;3367;48.714;8.994;2023-03-05T00:26:38;36.80;;;16.70;;
6661;SDS011;3367;48.714;8.994;2023-03-05T00:29:06;33.47;;;17.13;;
6661;SDS011;3367;48.714;8.994;2023-03-05T00:31:34;37.50;;;16.97;;
6661;SDS011;3367;48.714;8.994;2023-03-05T00:34:04;38.00;;;18.40;;
6661;SDS011;3367;48.714;8.994;2023-03-05T00:36:32;32.00;;;16.13;;
6661;SDS011;3367;48.714;8.994;2023-03-05T00:38:59;35.57;;;16.90;;
6661;SDS011;3367;48.714;8.994;2023-03-05T00:41:26;39.03;;;18.07;;
6661;SDS011;3367;48.714;8.994;2023-03-05T00:43:53;44.50;;;19.10;;
6661;SDS011;3367;48.714;8.994;2023-03-05T00:46:20;33.83;;;17.10;;
6661;SDS011;3367;48.714;8.994;2023-03-05T00:48:47;36.97;;;17.30;;
6661;SDS011;3367;48.714;8.994;2023-03-05T00:51:15;40.83;;;18.87;;
6661;SDS011;3367;48.714;8.994;2023-03-05T00:53:41;43.37;;;19.07;;
6661;SDS011;3367;48.714;8.994;2023-03-05T00:56:08;38.07;;;18.63;;
6661;SDS011;3367;48.714;8.994;2023-03-05T00:58:35;42.67;;;18.80;;
6661;SDS011;3367;48.714;8.994;2023-03-05T01:01:02;36.50;;;19.10;;
6661;SDS011;3367;48.714;8.994;2023-03-05T01:03:31;41.27;;;18.43;;
6661;SDS011;3367;48.714;8.994;2023-03-05T01:05:59;40.87;;;19.07;;
6661;SDS011;3367;48.714;8.994;2023-03-05T01:08:27;40.97;;;19.30;;
6661;SDS011;3367;48.714;8.994;2023-03-05T01:10:54;45.93;;;18.90;;
6661;SDS011;3367;48.714;8.994;2023-03-05T01:13:21;39.90;;;18.40;;
6661;SDS011;3367;48.714;8.994;2023-03-05T01:15:48;41.53;;;18.77;;
6661;SDS011;3367;48.714;8.994;2023-03-05T01:18:15;37.40;;;18.40;;
6661;SDS011;3367;48.714;8.994;2023-03-05T01:20:42;44.03;;;19.23;;
6661;SDS011;3367;48.714;8.994;2023-03-05T01:23:09;45.47;;;18.47;;
6661;SDS011;3367;48.714;8.994;2023-03-05T01:25:38;35.80;;;16.47;;
6661;SDS011;3367;48.714;8.994;2023-03-05T01:28:05;44.93;;;17.60;;
6661;SDS011;3367;48.714;8.994;2023-03-05T01:30:33;39.90;;;18.63;;
6661;SDS011;3367;48.714;8.994;2023-03-05T01:33:00;33.17;;;17.30;;
6661;SDS011;3367;48.714;8.994;2023-03-05T01:35:27;35.57;;;17.17;;
6661;SDS011;3367;48.714;8.994;2023-03-05T01:37:54;41.37;;;18.87;;
6661;SDS011;3367;48.714;8.994;2023-03-05T01:40:23;38.90;;;18.60;;
6661;SDS011;3367;48.714;8.994;2023-03-05T01:42:56;39.43;;;19.13;;
6661;SDS011;3367;48.714;8.994;2023-03-05T01:45:25;44.83;;;19.60;;
6661;SDS011;3367;48.714;8.994;2023-03-05T01:47:55;44.57;;;19.93;;
6661;SDS011;3367;48.714;8.994;2023-03-05T01:50:22;48.30;;;19.20;;
6661;SDS011;3367;48.714;8.994;2023-03-05T01:52:52;45.93;;;22.30;;
6661;SDS011;3367;48.714;8.994;2023-03-05T01:55:24;48.63;;;19.60;;
6661;SDS011;3367;48.714;8.994;2023-03-05T01:57:53;46.63;;;20.77;;
6661;SDS011;3367;48.714;8.994;2023-03-05T02:00:26;42.80;;;20.33;;
6661;SDS011;3367;48.714;8.994;2023-03-05T02:02:55;47.80;;;22.00;;
6661;SDS011;3367;48.714;8.994;2023-03-05T02:05:28;43.77;;;21.00;;
6661;SDS011;3367;48.714;8.994;2023-03-05T02:07:56;42.20;;;19.93;;
6661;SDS011;3367;48.714;8.994;2023-03-05T02:10:25;48.60;;;20.37;;
6661;SDS011;3367;48.714;8.994;2023-03-05T02:12:55;44.37;;;19.53;;
6661;SDS011;3367;48.714;8.994;2023-03-05T02:15:25;44.97;;;21.33;;
6661;SDS011;3367;48.714;8.994;2023-03-05T02:17:53;45.63;;;20.77;;
6661;SDS011;3367;48.714;8.994;2023-03-05T02:20:21;47.67;;;20.83;;
6661;SDS011;3367;48.714;8.994;2023-03-05T02:22:50;50.13;;;20.33;;
6661;SDS011;3367;48.714;8.994;2023-03-05T02:25:18;45.13;;;20.07;;
6661;SDS011;3367;48.714;8.994;2023-03-05T02:27:50;65.67;;;21.23;;
6661;SDS011;3367;48.714;8.994;2023-03-05T02:30:20;40.37;;;19.70;;
6661;SDS011;3367;48.714;8.994;2023-03-05T02:32:47;39.47;;;20.13;;
6661;SDS011;3367;48.714;8.994;2023-03-05T02:38:37;45.13;;;20.60;;
6661;SDS011;3367;48.714;8.994;2023-03-05T02:41:05;44.07;;;20.27;;
6661;SDS011;3367;48.714;8.994;2023-03-05T02:43:32;46.50;;;20.93;;
6661;SDS011;3367;48.714;8.994;2023-03-05T02:45:59;41.40;;;19.63;;
6661;SDS011;3367;48.714;8.994;2023-03-05T02:48:25;43.00;;;20.37;;
6661;SDS011;3367;48.714;8.994;2023-03-05T02:50:52;48.77;;;22.07;;
6661;SDS011;3367;48.714;8.994;2023-03-05T02:53:20;49.33;;;21.33;;
6661;SDS011;3367;48.714;8.994;2023-03-05T02:55:49;45.30;;;21.03;;
6661;SDS011;3367;48.714;8.994;2023-03-05T02:58:16;42.90;;;19.83;;
6661;SDS011;3367;48.714;8.994;2023-03-05T03:00:43;42.10;;;18.63;;
6661;SDS011;3367;48.714;8.994;2023-03-05T03:03:11;45.43;;;19.13;;
6661;SDS011;3367;48.714;8.994;2023-03-05T03:05:38;37.27;;;18.13;;
6661;SDS011;3367;48.714;8.994;2023-03-05T03:08:05;41.33;;;20.00;;
6661;SDS011;3367;48.714;8.994;2023-03-05T03:10:32;53.77;;;21.83;;
6661;SDS011;3367;48.714;8.994;2023-03-05T03:13:01;47.60;;;20.50;;
6661;SDS011;3367;48.714;8.994;2023-03-05T03:15:28;45.00;;;20.67;;
6661;SDS011;3367;48.714;8.994;2023-03-05T03:17:55;46.87;;;20.13;;
6661;SDS011;3367;48.714;8.994;2023-03-05T03:20:21;47.37;;;19.87;;
6661;SDS011;3367;48.714;8.994;2023-03-05T03:22:49;50.67;;;21.97;;
6661;SDS011;3367;48.714;8.994;2023-03-05T03:25:16;42.90;;;19.30;;
6661;SDS011;3367;48.714;8.994;2023-03-05T03:27:45;42.70;;;17.73;;
6661;SDS011;3367;48.714;8.994;2023-03-05T03:30:14;39.00;;;18.27;;
6661;SDS011;3367;48.714;8.994;2023-03-05T03:32:41;41.60;;;18.17;;
6661;SDS011;3367;48.714;8.994;2023-03-05T03:35:09;45.00;;;20.33;;
6661;SDS011;3367;48.714;8.994;2023-03-05T03:37:36;51.57;;;21.10;;
6661;SDS011;3367;48.714;8.994;2023-03-05T03:40:04;48.50;;;21.80;;
6661;SDS011;3367;48.714;8.994;2023-03-05T03:42:31;47.17;;;19.77;;
6661;SDS011;3367;48.714;8.994;2023-03-05T03:44:58;55.60;;;21.73;;
6661;SDS011;3367;48.714;8.994;2023-03-05T03:47:27;52.57;;;21.60;;
6661;SDS011;3367;48.714;8.994;2023-03-05T03:49:54;53.77;;;20.93;;
6661;SDS011;3367;48.714;8.994;2023-03-05T03:52:22;45.20;;;21.57;;
6661;SDS011;3367;48.714;8.994;2023-03-05T03:54:50;44.07;;;19.30;;
6661;SDS011;3367;48.714;8.994;2023-03-05T03:57:17;54.93;;;21.50;;
6661;SDS011;3367;48.714;8.994;2023-03-05T03:59:44;44.00;;;18.77;;
6661;SDS011;3367;48.714;8.994;2023-03-05T04:02:11;42.17;;;19.17;;
6661;SDS011;3367;48.714;8.994;2023-03-05T04:04:39;43.10;;;20.57;;
6661;SDS011;3367;48.714;8.994;2023-03-05T04:07:06;39.90;;;18.57;;
6661;SDS011;3367;48.714;8.994;2023-03-05T04:09:33;42.63;;;18.17;;
6661;SDS011;3367;48.714;8.994;2023-03-05T04:12:00;42.37;;;18.57;;
6661;SDS011;3367;48.714;8.994;2023-03-05T04:14:27;46.00;;;18.57;;
6661;SDS011;3367;48.714;8.994;2023-03-05T04:16:53;38.93;;;18.00;;
6661;SDS011;3367;48.714;8.994;2023-03-05T04:19:20;44.67;;;19.07;;
6661;SDS011;3367;48.714;8.994;2023-03-05T04:21:48;47.73;;;19.20;;
6661;SDS011;3367;48.714;8.994;2023-03-05T04:24:15;39.80;;;17.47;;
6661;SDS011;3367;48.714;8.994;2023-03-05T04:26:42;41.17;;;18.73;;
6661;SDS011;3367;48.714;8.994;2023-03-05T04:29:09;41.83;;;19.17;;
6661;SDS011;3367;48.714;8.994;2023-03-05T04:31:36;40.00;;;18.63;;
6661;SDS011;3367;48.714;8.994;2023-03-05T04:34:03;44.60;;;19.03;;
6661;SDS011;3367;48.714;8.994;2023-03-05T04:36:29;40.43;;;19.53;;
6661;SDS011;3367;48.714;8.994;2023-03-05T04:38:57;40.97;;;18.37;;
6661;SDS011;3367;48.714;8.994;2023-03-05T04:41:25;42.30;;;20.10;;
6661;SDS011;3367;48.714;8.994;2023-03-05T04:43:51;45.67;;;21.40;;
6661;SDS011;3367;48.714;8.994;2023-03-05T04:46:18;47.50;;;20.50;;
6661;SDS011;3367;48.714;8.994;2023-03-05T04:48:45;41.63;;;19.60;;
6661;SDS011;3367;48.714;8.994;2023-03-05T04:51:12;43.07;;;20.40;;
6661;SDS011;3367;48.714;8.994;2023-03-05T04:53:39;41.37;;;17.33;;
6661;SDS011;3367;48.714;8.994;2023-03-05T04:56:07;40.30;;;18.20;;
6661;SDS011;3367;48.714;8.994;2023-03-05T04:58:34;39.17;;;18.43;;
6661;SDS011;3367;48.714;8.994;2023-03-05T05:01:01;40.40;;;18.90;;
6661;SDS011;3367;48.714;8.994;2023-03-05T05:03:29;48.97;;;20.40;;
6661;SDS011;3367;48.714;8.994;2023-03-05T05:05:56;48.70;;;20.40;;
6661;SDS011;3367;48.714;8.994;2023-03-05T05:08:24;46.93;;;19.40;;
6661;SDS011;3367;48.714;8.994;2023-03-05T05:10:55;42.77;;;21.10;;
6661;SDS011;3367;48.714;8.994;2023-03-05T05:13:25;39.80;;;18.57;;
6661;SDS011;3367;48.714;8.994;2023-03-05T05:15:52;45.70;;;19.40;;
6661;SDS011;3367;48.714;8.994;2023-03-05T05:18:19;46.00;;;19.20;;
6661;SDS011;3367;48.714;8.994;2023-03-05T05:20:46;48.13;;;19.17;;
6661;SDS011;3367;48.714;8.994;2023-03-05T05:23:14;46.47;;;21.73;;
6661;SDS011;3367;48.714;8.994;2023-03-05T05:25:41;39.53;;;17.97;;
6661;SDS011;3367;48.714;8.994;2023-03-05T05:28:08;42.60;;;18.77;;
6661;SDS011;3367;48.714;8.994;2023-03-05T05:30:37;48.30;;;20.27;;
6661;SDS011;3367;48.714;8.994;2023-03-05T05:33:04;48.27;;;18.83;;
6661;SDS011;3367;48.714;8.994;2023-03-05T05:35:31;45.33;;;19.53;;
6661;SDS011;3367;48.714;8.994;2023-03-05T05:37:58;48.77;;;19.70;;
6661;SDS011;3367;48.714;8.994;2023-03-05T05:40:25;44.93;;;19.73;;
6661;SDS011;3367;48.714;8.994;2023-03-05T05:42:52;41.97;;;17.83;;
6661;SDS011;3367;48.714;8.994;2023-03-05T05:45:19;44.47;;;20.00;;
6661;SDS011;3367;48.714;8.994;2023-03-05T05:47:47;52.50;;;20.60;;
6661;SDS011;3367;48.714;8.994;2023-03-05T05:50:13;46.37;;;18.20;;
6661;SDS011;3367;48.714;8.994;2023-03-05T05:52:40;44.97;;;20.00;;
6661;SDS011;3367;48.714;8.994;2023-03-05T05:55:08;45.10;;;17.90;;
6661;SDS011;3367;48.714;8.994;2023-03-05T05:57:35;39.10;;;17.70;;
6661;SDS011;3367;48.714;8.994;2023-03-05T06:00:03;41.13;;;18.93;;
6661;SDS011;3367;48.714;8.994;2023-03-05T06:02:32;45.43;;;18.17;;
6661;SDS011;3367;48.714;8.994;2023-03-05T06:05:00;38.07;;;16.80;;
6661;SDS011;3367;48.714;8.994;2023-03-05T06:07:27;42.37;;;19.10;;
6661;SDS011;3367;48.714;8.994;2023-03-05T06:09:55;32.93;;;16.60;;
6661;SDS011;3367;48.714;8.994;2023-03-05T06:12:22;39.17;;;18.13;;
6661;SDS011;3367;48.714;8.994;2023-03-05T06:14:49;40.23;;;17.80;;
6661;SDS011;3367;48.714;8.994;2023-03-05T06:17:16;44.70;;;19.23;;
6661;SDS011;3367;48.714;8.994;2023-03-05T06:19:44;45.20;;;18.00;;
6661;SDS011;3367;48.714;8.994;2023-03-05T06:22:12;37.60;;;15.97;;
6661;SDS011;3367;48.714;8.994;2023-03-05T06:24:39;39.00;;;16.40;;
6661;SDS011;3367;48.714;8.994;2023-03-05T06:27:06;35.13;;;16.07;;
6661;SDS011;3367;48.714;8.994;2023-03-05T06:29:32;41.07;;;16.97;;
6661;SDS011;3367;48.714;8.994;2023-03-05T06:31:59;34.17;;;15.90;;
6661;SDS011;3367;48.714;8.994;2023-03-05T06:34:26;36.30;;;16.07;;
6661;SDS011;3367;48.714;8.994;2023-03-05T06:36:53;39.13;;;17.37;;
6661;SDS011;3367;48.714;8.994;2023-03-05T06:39:21;34.03;;;14.70;;
6661;SDS011;3367;48.714;8.994;2023-03-05T06:41:49;46.03;;;16.03;;
6661;SDS011;3367;48.714;8.994;2023-03-05T06:44:16;41.57;;;15.90;;
6661;SDS011;3367;48.714;8.994;2023-03-05T06:46:43;41.67;;;15.80;;
6661;SDS011;3367;48.714;8.994;2023-03-05T06:49:10;41.20;;;18.07;;
6661;SDS011;3367;48.714;8.994;2023-03-05T06:51:37;38.00;;;18.57;;
6661;SDS011;3367;48.714;8.994;2023-03-05T06:54:05;56.87;;;22.17;;
6661;SDS011;3367;48.714;8.994;2023-03-05T06:56:36;49.90;;;22.63;;
6661;SDS011;3367;48.714;8.994;2023-03-05T06:59:04;44.40;;;20.50;;
6661;SDS011;3367;48.714;8.994;2023-03-05T07:01:32;37.93;;;17.03;;
6661;SDS011;3367;48.714;8.994;2023-03-05T07:03:59;36.27;;;17.03;;
6661;SDS011;3367;48.714;8.994;2023-03-05T07:06:27;40.23;;;17.90;;
6661;SDS011;3367;48.714;8.994;2023-03-05T07:08:57;44.83;;;18.70;;
6661;SDS011;3367;48.714;8.994;2023-03-05T07:11:25;35.20;;;17.80;;
6661;SDS011;3367;48.714;8.994;2023-03-05T07:13:54;38.43;;;16.90;;
6661;SDS011;3367;48.714;8.994;2023-03-05T07:16:21;37.80;;;16.87;;
6661;SDS011;3367;48.714;8.994;2023-03-05T07:18:49;40.03;;;17.37;;
6661;SDS011;3367;48.714;8.994;2023-03-05T07:21:17;31.27;;;15.97;;
6661;SDS011;3367;48.714;8.994;2023-03-05T07:23:46;32.87;;;15.00;;
6661;SDS011;3367;48.714;8.994;2023-03-05T07:26:13;35.80;;;16.77;;
6661;SDS011;3367;48.714;8.994;2023-03-05T07:28:41;32.87;;;15.27;;
6661;SDS011;3367;48.714;8.994;2023-03-05T07:31:11;29.73;;;12.97;;
6661;SDS011;3367;48.714;8.994;2023-03-05T07:33:39;26.77;;;13.07;;
6661;SDS011;3367;48.714;8.994;2023-03-05T07:36:06;31.10;;;13.73;;
6661;SDS011;3367;48.714;8.994;2023-03-05T07:38:34;29.53;;;13.77;;
6661;SDS011;3367;48.714;8.994;2023-03-05T07:41:01;24.97;;;12.97;;
6661;SDS011;3367;48.714;8.994;2023-03-05T07:43:28;33.57;;;15.80;;
6661;SDS011;3367;48.714;8.994;2023-03-05T07:45:55;34.30;;;17.30;;
6661;SDS011;3367;48.714;8.994;2023-03-05T07:48:23;31.80;;;15.47;;
6661;SDS011;3367;48.714;8.994;2023-03-05T07:50:58;44.47;;;21.50;;
6661;SDS011;3367;48.714;8.994;2023-03-05T07:53:26;33.63;;;15.07;;
6661;SDS011;3367;48.714;8.994;2023-03-05T07:55:53;32.20;;;14.60;;
6661;SDS011;3367;48.714;8.994;2023-03-05T07:58:20;23.80;;;12.20;;
6661;SDS011;3367;48.714;8.994;2023-03-05T08:00:46;28.37;;;13.57;;
6661;SDS011;3367;48.714;8.994;2023-03-05T08:03:13;25.83;;;12.53;;
6661;SDS011;3367;48.714;8.994;2023-03-05T08:05:41;22.73;;;12.47;;
6661;SDS011;3367;48.714;8.994;2023-03-05T08:08:08;29.93;;;12.97;;
6661;SDS011;3367;48.714;8.994;2023-03-05T08:10:35;24.27;;;12.30;;
6661;SDS011;3367;48.714;8.994;2023-03-05T08:13:02;29.10;;;13.73;;
6661;SDS011;3367;48.714;8.994;2023-03-05T08:15:29;25.13;;;12.20;;
6661;SDS011;3367;48.714;8.994;2023-03-05T08:17:56;25.13;;;12.27;;
6661;SDS011;3367;48.714;8.994;2023-03-05T08:20:23;29.30;;;12.63;;
6661;SDS011;3367;48.714;8.994;2023-03-05T08:22:51;24.73;;;11.87;;
6661;SDS011;3367;48.714;8.994;2023-03-05T08:25:18;22.83;;;12.53;;
6661;SDS011;3367;48.714;8.994;2023-03-05T08:27:45;23.47;;;11.17;;
6661;SDS011;3367;48.714;8.994;2023-03-05T08:30:14;23.47;;;12.43;;
6661;SDS011;3367;48.714;8.994;2023-03-05T08:32:42;26.97;;;13.00;;
6661;SDS011;3367;48.714;8.994;2023-03-05T08:35:09;27.03;;;12.47;;
6661;SDS011;3367;48.714;8.994;2023-03-05T08:37:36;29.93;;;14.60;;
6661;SDS011;3367;48.714;8.994;2023-03-05T08:40:05;25.10;;;13.27;;
6661;SDS011;3367;48.714;8.994;2023-03-05T08:42:32;24.43;;;12.80;;
6661;SDS011;3367;48.714;8.994;2023-03-05T08:44:59;26.40;;;13.57;;
6661;SDS011;3367;48.714;8.994;2023-03-05T08:47:26;24.23;;;13.57;;
6661;SDS011;3367;48.714;8.994;2023-03-05T08:49:53;26.70;;;13.30;;
6661;SDS011;3367;48.714;8.994;2023-03-05T08:52:21;25.57;;;12.27;;
6661;SDS011;3367;48.714;8.994;2023-03-05T08:54:48;21.53;;;11.40;;
6661;SDS011;3367;48.714;8.994;2023-03-05T08:57:16;24.40;;;12.47;;
6661;SDS011;3367;48.714;8.994;2023-03-05T08:59:42;30.30;;;13.30;;
6661;SDS011;3367;48.714;8.994;2023-03-05T09:02:09;27.67;;;13.60;;
6661;SDS011;3367;48.714;8.994;2023-03-05T09:04:37;25.73;;;11.83;;
6661;SDS011;3367;48.714;8.994;2023-03-05T09:07:03;25.63;;;12.10;;
6661;SDS011;3367;48.714;8.994;2023-03-05T09:09:31;26.47;;;11.87;;
6661;SDS011;3367;48.714;8.994;2023-03-05T09:11:58;21.03;;;11.00;;
6661;SDS011;3367;48.714;8.994;2023-03-05T09:14:26;21.80;;;11.80;;
6661;SDS011;3367;48.714;8.994;2023-03-05T09:16:53;21.83;;;11.87;;
6661;SDS011;3367;48.714;8.994;2023-03-05T09:19:20;20.10;;;9.50;;
6661;SDS011;3367;48.714;8.994;2023-03-05T09:21:46;22.33;;;12.00;;
6661;SDS011;3367;48.714;8.994;2023-03-05T09:24:13;24.30;;;11.57;;
6661;SDS011;3367;48.714;8.994;2023-03-05T09:26:40;19.67;;;11.33;;
6661;SDS011;3367;48.714;8.994;2023-03-05T09:29:07;22.43;;;11.10;;
6661;SDS011;3367;48.714;8.994;2023-03-05T09:31:35;26.60;;;11.20;;
6661;SDS011;3367;48.714;8.994;2023-03-05T09:34:02;18.13;;;11.03;;
6661;SDS011;3367;48.714;8.994;2023-03-05T09:36:30;23.80;;;12.10;;
6661;SDS011;3367;48.714;8.994;2023-03-05T09:38:57;24.13;;;11.63;;
6661;SDS011;3367;48.714;8.994;2023-03-05T09:41:25;23.57;;;12.13;;
6661;SDS011;3367;48.714;8.994;2023-03-05T09:44:04;18.47;;;10.33;;
6661;SDS011;3367;48.714;8.994;2023-03-05T09:46:42;23.37;;;12.30;;
6661;SDS011;3367;48.714;8.994;2023-03-05T09:49:17;19.80;;;11.60;;
6661;SDS011;3367;48.714;8.994;2023-03-05T09:51:50;21.10;;;11.40;;
6661;SDS011;3367;48.714;8.994;2023-03-05T09:54:21;26.67;;;10.70;;
6661;SDS011;3367;48.714;8.994;2023-03-05T09:56:54;22.40;;;11.43;;
6661;SDS011;3367;48.714;8.994;2023-03-05T09:59:24;23.70;;;12.17;;
6661;SDS011;3367;48.714;8.994;2023-03-05T10:01:58;21.23;;;12.13;;
6661;SDS011;3367;48.714;8.994;2023-03-05T10:04:31;20.27;;;10.87;;
6661;SDS011;3367;48.714;8.994;2023-03-05T10:07:11;21.80;;;10.90;;
6661;SDS011;3367;48.714;8.994;2023-03-05T10:09:42;21.40;;;12.37;;
6661;SDS011;3367;48.714;8.994;2023-03-05T10:12:13;19.97;;;11.70;;
6661;SDS011;3367;48.714;8.994;2023-03-05T10:14:45;23.30;;;12.10;;
6661;SDS011;3367;48.714;8.994;2023-03-05T10:17:26;41.17;;;21.33;;
6661;SDS011;3367;48.714;8.994;2023-03-05T10:23:15;23.10;;;11.07;;
6661;SDS011;3367;48.714;8.994;2023-03-05T10:25:52;18.93;;;10.93;;
6661;SDS011;3367;48.714;8.994;2023-03-05T10:28:26;24.03;;;12.50;;
6661;SDS011;3367;48.714;8.994;2023-03-05T10:31:12;25.07;;;13.63;;
6661;SDS011;3367;48.714;8.994;2023-03-05T10:34:00;22.90;;;11.73;;
6661;SDS011;3367;48.714;8.994;2023-03-05T10:36:39;22.30;;;11.27;;
6661;SDS011;3367;48.714;8.994;2023-03-05T10:39:36;19.67;;;11.40;;
6661;SDS011;3367;48.714;8.994;2023-03-05T10:42:16;21.57;;;10.90;;
6661;SDS011;3367;48.714;8.994;2023-03-05T10:44:49;22.10;;;11.13;;
6661;SDS011;3367;48.714;8.994;2023-03-05T10:47:21;21.60;;;12.30;;
6661;SDS011;3367;48.714;8.994;2023-03-05T10:49:52;24.10;;;11.70;;
6661;SDS011;3367;48.714;8.994;2023-03-05T10:52:21;19.30;;;10.73;;
6661;SDS011;3367;48.714;8.994;2023-03-05T10:54:54;23.20;;;12.60;;
6661;SDS011;3367;48.714;8.994;2023-03-05T10:57:21;20.90;;;11.67;;
6661;SDS011;3367;48.714;8.994;2023-03-05T10:59:50;22.63;;;12.10;;
6661;SDS011;3367;48.714;8.994;2023-03-05T11:02:19;25.40;;;11.47;;
6661;SDS011;3367;48.714;8.994;2023-03-05T11:04:47;32.27;;;16.37;;
6661;SDS011;3367;48.714;8.994;2023-03-05T11:10:14;23.77;;;11.63;;
6661;SDS011;3367;48.714;8.994;2023-03-05T11:12:43;19.10;;;10.63;;
6661;SDS011;3367;48.714;8.994;2023-03-05T11:15:22;23.57;;;12.80;;
6661;SDS011;3367;48.714;8.994;2023-03-05T11:18:14;22.03;;;10.53;;
6661;SDS011;3367;48.714;8.994;2023-03-05T11:20:48;21.23;;;11.00;;
6661;SDS011;3367;48.714;8.994;2023-03-05T11:23:16;23.77;;;11.40;;
6661;SDS011;3367;48.714;8.994;2023-03-05T11:25:52;22.63;;;11.50;;
6661;SDS011;3367;48.714;8.994;2023-03-05T11:28:24;22.93;;;11.30;;
6661;SDS011;3367;48.714;8.994;2023-03-05T11:30:54;27.03;;;11.77;;
6661;SDS011;3367;48.714;8.994;2023-03-05T11:33:23;22.67;;;11.30;;
6661;SDS011;3367;48.714;8.994;2023-03-05T11:35:50;23.20;;;11.33;;
6661;SDS011;3367;48.714;8.994;2023-03-05T11:38:20;19.60;;;10.60;;
6661;SDS011;3367;48.714;8.994;2023-03-05T11:40:49;27.77;;;12.73;;
6661;SDS011;3367;48.714;8.994;2023-03-05T11:43:19;21.27;;;11.40;;
6661;SDS011;3367;48.714;8.994;2023-03-05T11:45:48;24.20;;;12.80;;
6661;SDS011;3367;48.714;8.994;2023-03-05T11:48:17;26.70;;;12.00;;
6661;SDS011;3367;48.714;8.994;2023-03-05T11:50:50;21.10;;;10.43;;
6661;SDS011;3367;48.714;8.994;2023-03-05T11:53:23;23.07;;;11.90;;
6661;SDS011;3367;48.714;8.994;2023-03-05T11:55:53;26.83;;;11.80;;
6661;SDS011;3367;48.714;8.994;2023-03-05T11:58:26;21.73;;;11.73;;
6661;SDS011;3367;48.714;8.994;2023-03-05T12:00:56;24.80;;;12.50;;
6661;SDS011;3367;48.714;8.994;2023-03-05T12:03:28;25.40;;;11.20;;
6661;SDS011;3367;48.714;8.994;2023-03-05T12:05:59;22.43;;;11.70;;
6661;SDS011;3367;48.714;8.994;2023-03-05T12:08:34;23.27;;;12.00;;
6661;SDS011;3367;48.714;8.994;2023-03-05T12:11:04;28.53;;;12.40;;
6661;SDS011;3367;48.714;8.994;2023-03-05T12:13:39;26.03;;;13.33;;
6661;SDS011;3367;48.714;8.994;2023-03-05T12:16:11;26.13;;;12.83;;
6661;SDS011;3367;48.714;8.994;2023-03-05T12:18:50;26.17;;;12.93;;
6661;SDS011;3367;48.714;8.994;2023-03-05T12:21:25;27.70;;;13.60;;
6661;SDS011;3367;48.714;8.994;2023-03-05T12:24:00;29.67;;;13.93;;
6661;SDS011;3367;48.714;8.994;2023-03-05T12:26:52;28.70;;;14.13;;
6661;SDS011;3367;48.714;8.994;2023-03-05T12:29:25;30.70;;;14.67;;
6661;SDS011;3367;48.714;8.994;2023-03-05T12:31:54;36.63;;;15.27;;
6661;SDS011;3367;48.714;8.994;2023-03-05T12:40:25;27.93;;;15.47;;
6661;SDS011;3367;48.714;8.994;2023-03-05T12:42:54;34.57;;;15.93;;
6661;SDS011;3367;48.714;8.994;2023-03-05T12:45:32;31.20;;;15.03;;
6661;SDS011;3367;48.714;8.994;2023-03-05T12:51:10;28.47;;;14.50;;
6661;SDS011;3367;48.714;8.994;2023-03-05T12:53:38;31.50;;;14.70;;
6661;SDS011;3367;48.714;8.994;2023-03-05T12:56:11;22.37;;;13.50;;
6661;SDS011;3367;48.714;8.994;2023-03-05T12:58:43;29.00;;;14.07;;
6661;SDS011;3367;48.714;8.994;2023-03-05T13:01:14;32.40;;;14.63;;
6661;SDS011;3367;48.714;8.994;2023-03-05T13:03:53;21.20;;;12.00;;
6661;SDS011;3367;48.714;8.994;2023-03-05T13:06:23;31.20;;;12.83;;
6661;SDS011;3367;48.714;8.994;2023-03-05T13:08:54;117.50;;;44.13;;
6661;SDS011;3367;48.714;8.994;2023-03-05T13:11:24;26.63;;;12.17;;
6661;SDS011;3367;48.714;8.994;2023-03-05T13:13:51;50.80;;;23.20;;
6661;SDS011;3367;48.714;8.994;2023-03-05T13:16:19;26.40;;;12.97;;
6661;SDS011;3367;48.714;8.994;2023-03-05T13:18:49;21.77;;;11.37;;
6661;SDS011;3367;48.714;8.994;2023-03-05T13:21:17;26.10;;;14.10;;
6661;SDS011;3367;48.714;8.994;2023-03-05T13:23:45;22.90;;;12.10;;
6661;SDS011;3367;48.714;8.994;2023-03-05T13:26:14;25.80;;;12.00;;
6661;SDS011;3367;48.714;8.994;2023-03-05T13:28:44;27.70;;;11.80;;
6661;SDS011;3367;48.714;8.994;2023-03-05T13:31:27;29.43;;;11.93;;
6661;SDS011;3367;48.714;8.994;2023-03-05T13:33:55;26.00;;;11.87;;
6661;SDS011;3367;48.714;8.994;2023-03-05T13:36:30;25.43;;;13.40;;
6661;SDS011;3367;48.714;8.994;2023-03-05T13:38:57;44.50;;;16.47;;
6661;SDS011;3367;48.714;8.994;2023-03-05T13:41:25;29.50;;;14.20;;
6661;SDS011;3367;48.714;8.994;2023-03-05T13:43:55;30.17;;;13.13;;
6661;SDS011;3367;48.714;8.994;2023-03-05T13:46:23;19.63;;;10.50;;
6661;SDS011;3367;48.714;8.994;2023-03-05T13:48:52;24.40;;;12.50;;
6661;SDS011;3367;48.714;8.994;2023-03-05T13:51:18;22.93;;;11.70;;
6661;SDS011;3367;48.714;8.994;2023-03-05T13:53:45;19.93;;;10.00;;
6661;SDS011;3367;48.714;8.994;2023-03-05T13:56:13;19.63;;;11.07;;
6661;SDS011;3367;48.714;8.994;2023-03-05T13:58:43;24.80;;;11.00;;
6661;SDS011;3367;48.714;8.994;2023-03-05T14:01:30;28.03;;;11.90;;
6661;SDS011;3367;48.714;8.994;2023-03-05T14:04:02;29.10;;;12.00;;
6661;SDS011;3367;48.714;8.994;2023-03-05T14:06:32;21.47;;;10.53;;
6661;SDS011;3367;48.714;8.994;2023-03-05T14:09:06;24.90;;;10.30;;
6661;SDS011;3367;48.714;8.994;2023-03-05T14:11:49;20.10;;;10.50;;
6661;SDS011;3367;48.714;8.994;2023-03-05T14:14:18;29.43;;;12.63;;
6661;SDS011;3367;48.714;8.994;2023-03-05T14:16:48;20.00;;;10.97;;
6661;SDS011;3367;48.714;8.994;2023-03-05T14:19:27;21.40;;;10.10;;
6661;SDS011;3367;48.714;8.994;2023-03-05T14:21:58;23.60;;;10.00;;
6661;SDS011;3367;48.714;8.994;2023-03-05T14:24:25;19.83;;;10.50;;
6661;SDS011;3367;48.714;8.994;2023-03-05T14:26:55;23.70;;;11.87;;
6661;SDS011;3367;48.714;8.994;2023-03-05T14:29:23;26.03;;;12.20;;
6661;SDS011;3367;48.714;8.994;2023-03-05T14:31:53;30.50;;;12.10;;
6661;SDS011;3367;48.714;8.994;2023-03-05T14:34:23;22.03;;;10.87;;
6661;SDS011;3367;48.714;8.994;2023-03-05T14:36:52;26.63;;;11.30;;
6661;SDS011;3367;48.714;8.994;2023-03-05T14:39:28;23.87;;;11.70;;
6661;SDS011;3367;48.714;8.994;2023-03-05T14:44:53;28.83;;;11.70;;
6661;SDS011;3367;48.714;8.994;2023-03-05T14:47:22;23.70;;;11.80;;
6661;SDS011;3367;48.714;8.994;2023-03-05T14:49:49;23.73;;;11.80;;
6661;SDS011;3367;48.714;8.994;2023-03-05T14:52:16;30.40;;;12.90;;
6661;SDS011;3367;48.714;8.994;2023-03-05T14:54:44;26.50;;;13.30;;
6661;SDS011;3367;48.714;8.994;2023-03-05T14:57:12;23.33;;;11.77;;
6661;SDS011;3367;48.714;8.994;2023-03-05T14:59:41;24.57;;;11.80;;
6661;SDS011;3367;48.714;8.994;2023-03-05T15:02:11;25.13;;;12.00;;
6661;SDS011;3367;48.714;8.994;2023-03-05T15:04:41;34.47;;;13.23;;
6661;SDS011;3367;48.714;8.994;2023-03-05T15:07:10;21.50;;;10.60;;
6661;SDS011;3367;48.714;8.994;2023-03-05T15:09:44;26.97;;;13.40;;
6661;SDS011;3367;48.714;8.994;2023-03-05T15:12:12;24.70;;;13.47;;
6661;SDS011;3367;48.714;8.994;2023-03-05T15:14:40;28.50;;;14.40;;
6661;SDS011;3367;48.714;8.994;2023-03-05T15:17:09;28.97;;;14.03;;
6661;SDS011;3367;48.714;8.994;2023-03-05T15:19:44;33.60;;;15.70;;
6661;SDS011;3367;48.714;8.994;2023-03-05T15:22:11;29.40;;;14.17;;